sensor_id;sensor_type;location;lat;lon;timestamp;P1;durP1;ratioP1;P2;durP2;ratioP2
18239;SDS011;9244;50.828;4.718;2023-07-22T00:02:16;7.80;;;7.00;;
18239;SDS011;9244;50.828;4.718;2023-07-22T00:04:42;8.00;;;7.20;;
18239;SDS011;9244;50.828;4.718;2023-07-22T00:07:08;8.03;;;7.23;;
18239;SDS011;9244;50.828;4.718;2023-07-22T00:09:33;7.90;;;7.10;;
18239;SDS011;9244;50.828;4.718;2023-07-22T00:11:59;7.80;;;7.10;;
18239;SDS011;9244;50.828;4.718;2023-07-22T00:14:25;8.70;;;7.77;;
18239;SDS011;9244;50.828;4.718;2023-07-22T00:16:51;8.23;;;7.53;;
18239;SDS011;9244;50.828;4.718;2023-07-22T00:19:17;8.83;;;8.03;;
18239;SDS011;9244;50.828;4.718;2023-07-22T00:21:42;8.83;;;8.03;;
18239;SDS011;9244;50.828;4.718;2023-07-22T00:24:09;9.10;;;8.20;;
18239;SDS011;9244;50.828;4.718;2023-07-22T00:26:35;8.90;;;7.73;;
18239;SDS011;9244;50.828;4.718;2023-07-22T00:29:01;9.50;;;8.00;;
18239;SDS011;9244;50.828;4.718;2023-07-22T00:31:27;9.17;;;8.27;;
18239;SDS011;9244;50.828;4.718;2023-07-22T00:33:53;8.23;;;7.40;;
18239;SDS011;9244;50.828;4.718;2023-07-22T00:36:18;8.27;;;7.47;;
18239;SDS011;9244;50.828;4.718;2023-07-22T00:38:44;8.70;;;7.83;;
18239;SDS011;9244;50.828;4.718;2023-07-22T00:41:10;8.77;;;7.87;;
18239;SDS011;9244;50.828;4.718;2023-07-22T00:43:36;9.50;;;7.70;;
18239;SDS011;9244;50.828;4.718;2023-07-22T00:46:03;8.77;;;7.97;;
18239;SDS011;9244;50.828;4.718;2023-07-22T00:48:29;8.07;;;7.30;;
18239;SDS011;9244;50.828;4.718;2023-07-22T00:50:56;8.60;;;7.80;;
18239;SDS011;9244;50.828;4.718;2023-07-22T00:53:22;7.93;;;7.13;;
18239;SDS011;9244;50.828;4.718;2023-07-22T00:55:48;9.27;;;7.73;;
18239;SDS011;9244;50.828;4.718;2023-07-22T00:58:13;8.83;;;7.93;;
18239;SDS011;9244;50.828;4.718;2023-07-22T01:00:40;7.90;;;7.10;;
18239;SDS011;9244;50.828;4.718;2023-07-22T01:03:05;8.93;;;8.03;;
18239;SDS011;9244;50.828;4.718;2023-07-22T01:05:32;8.90;;;7.80;;
18239;SDS011;9244;50.828;4.718;2023-07-22T01:08:00;9.10;;;7.47;;
18239;SDS011;9244;50.828;4.718;2023-07-22T01:10:26;9.47;;;8.23;;
18239;SDS011;9244;50.828;4.718;2023-07-22T01:12:53;8.93;;;8.03;;
18239;SDS011;9244;50.828;4.718;2023-07-22T01:15:20;8.77;;;7.93;;
18239;SDS011;9244;50.828;4.718;2023-07-22T01:17:46;9.53;;;8.00;;
18239;SDS011;9244;50.828;4.718;2023-07-22T01:20:12;10.50;;;8.60;;
18239;SDS011;9244;50.828;4.718;2023-07-22T01:22:40;8.23;;;7.33;;
18239;SDS011;9244;50.828;4.718;2023-07-22T01:25:08;8.97;;;7.93;;
18239;SDS011;9244;50.828;4.718;2023-07-22T01:27:34;11.50;;;8.73;;
18239;SDS011;9244;50.828;4.718;2023-07-22T01:29:59;9.83;;;8.47;;
18239;SDS011;9244;50.828;4.718;2023-07-22T01:32:27;9.33;;;8.43;;
18239;SDS011;9244;50.828;4.718;2023-07-22T01:34:53;10.03;;;8.67;;
18239;SDS011;9244;50.828;4.718;2023-07-22T01:37:18;10.30;;;9.30;;
18239;SDS011;9244;50.828;4.718;2023-07-22T01:39:44;9.50;;;8.50;;
18239;SDS011;9244;50.828;4.718;2023-07-22T01:42:09;9.10;;;8.30;;
18239;SDS011;9244;50.828;4.718;2023-07-22T01:44:35;9.27;;;8.37;;
18239;SDS011;9244;50.828;4.718;2023-07-22T01:47:01;9.30;;;8.27;;
18239;SDS011;9244;50.828;4.718;2023-07-22T01:49:28;12.40;;;9.70;;
18239;SDS011;9244;50.828;4.718;2023-07-22T01:51:54;11.50;;;9.57;;
18239;SDS011;9244;50.828;4.718;2023-07-22T01:54:19;11.23;;;9.33;;
18239;SDS011;9244;50.828;4.718;2023-07-22T01:56:45;10.03;;;9.03;;
18239;SDS011;9244;50.828;4.718;2023-07-22T01:59:11;10.37;;;9.37;;
18239;SDS011;9244;50.828;4.718;2023-07-22T02:01:36;11.20;;;9.73;;
18239;SDS011;9244;50.828;4.718;2023-07-22T02:04:02;12.03;;;10.07;;
18239;SDS011;9244;50.828;4.718;2023-07-22T02:06:27;10.83;;;9.20;;
18239;SDS011;9244;50.828;4.718;2023-07-22T02:08:53;10.67;;;9.57;;
18239;SDS011;9244;50.828;4.718;2023-07-22T02:11:19;10.00;;;8.93;;
18239;SDS011;9244;50.828;4.718;2023-07-22T02:13:45;11.27;;;9.43;;
18239;SDS011;9244;50.828;4.718;2023-07-22T02:16:11;9.83;;;8.83;;
18239;SDS011;9244;50.828;4.718;2023-07-22T02:18:36;13.80;;;9.67;;
18239;SDS011;9244;50.828;4.718;2023-07-22T02:21:02;11.03;;;9.73;;
18239;SDS011;9244;50.828;4.718;2023-07-22T02:23:28;9.97;;;8.93;;
18239;SDS011;9244;50.828;4.718;2023-07-22T02:25:53;12.57;;;9.57;;
18239;SDS011;9244;50.828;4.718;2023-07-22T02:28:20;11.40;;;10.07;;
18239;SDS011;9244;50.828;4.718;2023-07-22T02:30:48;10.43;;;9.27;;
18239;SDS011;9244;50.828;4.718;2023-07-22T02:33:14;10.97;;;9.57;;
18239;SDS011;9244;50.828;4.718;2023-07-22T02:35:40;10.53;;;8.97;;
18239;SDS011;9244;50.828;4.718;2023-07-22T02:38:06;12.40;;;9.37;;
18239;SDS011;9244;50.828;4.718;2023-07-22T02:40:35;11.77;;;10.30;;
18239;SDS011;9244;50.828;4.718;2023-07-22T02:43:04;11.53;;;10.27;;
18239;SDS011;9244;50.828;4.718;2023-07-22T02:45:31;12.70;;;10.77;;
18239;SDS011;9244;50.828;4.718;2023-07-22T02:47:57;13.57;;;10.60;;
18239;SDS011;9244;50.828;4.718;2023-07-22T02:50:23;12.43;;;10.07;;
18239;SDS011;9244;50.828;4.718;2023-07-22T02:52:49;11.23;;;10.10;;
18239;SDS011;9244;50.828;4.718;2023-07-22T02:55:15;10.80;;;9.27;;
18239;SDS011;9244;50.828;4.718;2023-07-22T02:57:45;10.80;;;9.03;;
18239;SDS011;9244;50.828;4.718;2023-07-22T03:00:12;13.03;;;9.57;;
18239;SDS011;9244;50.828;4.718;2023-07-22T03:02:39;12.57;;;10.47;;
18239;SDS011;9244;50.828;4.718;2023-07-22T03:05:05;12.97;;;10.20;;
18239;SDS011;9244;50.828;4.718;2023-07-22T03:07:36;15.07;;;10.43;;
18239;SDS011;9244;50.828;4.718;2023-07-22T03:10:05;12.43;;;11.13;;
18239;SDS011;9244;50.828;4.718;2023-07-22T03:12:32;11.37;;;9.90;;
18239;SDS011;9244;50.828;4.718;2023-07-22T03:14:58;12.90;;;9.93;;
18239;SDS011;9244;50.828;4.718;2023-07-22T03:17:24;13.63;;;10.83;;
18239;SDS011;9244;50.828;4.718;2023-07-22T03:19:50;19.00;;;11.13;;
18239;SDS011;9244;50.828;4.718;2023-07-22T03:22:16;14.97;;;11.53;;
18239;SDS011;9244;50.828;4.718;2023-07-22T03:24:43;13.17;;;10.77;;
18239;SDS011;9244;50.828;4.718;2023-07-22T03:27:09;14.63;;;11.30;;
18239;SDS011;9244;50.828;4.718;2023-07-22T03:29:35;13.53;;;11.07;;
18239;SDS011;9244;50.828;4.718;2023-07-22T03:32:01;14.40;;;11.07;;
18239;SDS011;9244;50.828;4.718;2023-07-22T03:34:27;14.43;;;12.43;;
18239;SDS011;9244;50.828;4.718;2023-07-22T03:36:52;17.10;;;11.93;;
18239;SDS011;9244;50.828;4.718;2023-07-22T03:39:18;14.67;;;12.30;;
18239;SDS011;9244;50.828;4.718;2023-07-22T03:41:44;16.10;;;12.43;;
18239;SDS011;9244;50.828;4.718;2023-07-22T03:44:09;16.37;;;11.23;;
18239;SDS011;9244;50.828;4.718;2023-07-22T03:46:35;17.07;;;11.80;;
18239;SDS011;9244;50.828;4.718;2023-07-22T03:49:01;14.33;;;12.03;;
18239;SDS011;9244;50.828;4.718;2023-07-22T03:51:26;13.80;;;11.20;;
18239;SDS011;9244;50.828;4.718;2023-07-22T03:53:52;15.57;;;12.70;;
18239;SDS011;9244;50.828;4.718;2023-07-22T03:56:18;15.37;;;12.37;;
18239;SDS011;9244;50.828;4.718;2023-07-22T03:58:43;17.10;;;12.10;;
18239;SDS011;9244;50.828;4.718;2023-07-22T04:01:12;19.60;;;12.87;;
18239;SDS011;9244;50.828;4.718;2023-07-22T04:03:38;18.73;;;12.30;;
18239;SDS011;9244;50.828;4.718;2023-07-22T04:06:03;17.57;;;13.63;;
18239;SDS011;9244;50.828;4.718;2023-07-22T04:08:29;16.27;;;11.90;;
18239;SDS011;9244;50.828;4.718;2023-07-22T04:10:55;17.27;;;12.47;;
18239;SDS011;9244;50.828;4.718;2023-07-22T04:13:22;14.33;;;11.47;;
18239;SDS011;9244;50.828;4.718;2023-07-22T04:15:49;12.53;;;10.77;;
18239;SDS011;9244;50.828;4.718;2023-07-22T04:18:15;16.33;;;11.67;;
18239;SDS011;9244;50.828;4.718;2023-07-22T04:20:42;17.40;;;11.50;;
18239;SDS011;9244;50.828;4.718;2023-07-22T04:23:09;13.90;;;11.77;;
18239;SDS011;9244;50.828;4.718;2023-07-22T04:25:43;18.30;;;11.80;;
18239;SDS011;9244;50.828;4.718;2023-07-22T04:28:10;12.60;;;10.80;;
18239;SDS011;9244;50.828;4.718;2023-07-22T04:30:36;14.13;;;11.27;;
18239;SDS011;9244;50.828;4.718;2023-07-22T04:33:02;13.73;;;11.43;;
18239;SDS011;9244;50.828;4.718;2023-07-22T04:35:33;16.33;;;11.83;;
18239;SDS011;9244;50.828;4.718;2023-07-22T04:38:00;18.83;;;12.03;;
18239;SDS011;9244;50.828;4.718;2023-07-22T04:40:26;17.37;;;11.23;;
18239;SDS011;9244;50.828;4.718;2023-07-22T04:42:51;14.60;;;11.43;;
18239;SDS011;9244;50.828;4.718;2023-07-22T04:45:17;13.23;;;11.00;;
18239;SDS011;9244;50.828;4.718;2023-07-22T04:47:43;16.47;;;10.83;;
18239;SDS011;9244;50.828;4.718;2023-07-22T04:50:12;14.17;;;11.53;;
18239;SDS011;9244;50.828;4.718;2023-07-22T04:52:38;14.27;;;10.80;;
18239;SDS011;9244;50.828;4.718;2023-07-22T04:55:04;17.13;;;11.57;;
18239;SDS011;9244;50.828;4.718;2023-07-22T04:57:37;13.20;;;10.83;;
18239;SDS011;9244;50.828;4.718;2023-07-22T05:00:05;14.40;;;10.97;;
18239;SDS011;9244;50.828;4.718;2023-07-22T05:02:34;13.30;;;10.47;;
18239;SDS011;9244;50.828;4.718;2023-07-22T05:05:00;17.27;;;11.70;;
18239;SDS011;9244;50.828;4.718;2023-07-22T05:07:26;13.53;;;11.07;;
18239;SDS011;9244;50.828;4.718;2023-07-22T05:09:51;15.13;;;11.03;;
18239;SDS011;9244;50.828;4.718;2023-07-22T05:12:17;13.03;;;10.23;;
18239;SDS011;9244;50.828;4.718;2023-07-22T05:14:44;15.77;;;10.83;;
18239;SDS011;9244;50.828;4.718;2023-07-22T05:17:10;14.57;;;10.50;;
18239;SDS011;9244;50.828;4.718;2023-07-22T05:19:36;12.43;;;10.23;;
18239;SDS011;9244;50.828;4.718;2023-07-22T05:22:02;17.07;;;11.27;;
18239;SDS011;9244;50.828;4.718;2023-07-22T05:24:27;14.27;;;11.00;;
18239;SDS011;9244;50.828;4.718;2023-07-22T05:26:53;12.83;;;9.80;;
18239;SDS011;9244;50.828;4.718;2023-07-22T05:29:19;14.67;;;10.40;;
18239;SDS011;9244;50.828;4.718;2023-07-22T05:31:44;16.57;;;10.17;;
18239;SDS011;9244;50.828;4.718;2023-07-22T05:34:11;12.57;;;9.83;;
18239;SDS011;9244;50.828;4.718;2023-07-22T05:36:37;11.17;;;8.90;;
18239;SDS011;9244;50.828;4.718;2023-07-22T05:39:03;16.43;;;9.73;;
18239;SDS011;9244;50.828;4.718;2023-07-22T05:41:28;11.53;;;9.23;;
18239;SDS011;9244;50.828;4.718;2023-07-22T05:43:54;13.03;;;9.03;;
18239;SDS011;9244;50.828;4.718;2023-07-22T05:46:20;12.68;;;9.30;;
18239;SDS011;9244;50.828;4.718;2023-07-22T05:48:45;12.27;;;9.27;;
18239;SDS011;9244;50.828;4.718;2023-07-22T05:51:11;13.10;;;8.90;;
18239;SDS011;9244;50.828;4.718;2023-07-22T05:53:36;12.07;;;8.63;;
18239;SDS011;9244;50.828;4.718;2023-07-22T05:56:02;10.43;;;7.95;;
18239;SDS011;9244;50.828;4.718;2023-07-22T05:58:28;12.57;;;8.13;;
18239;SDS011;9244;50.828;4.718;2023-07-22T06:00:54;9.32;;;6.97;;
18239;SDS011;9244;50.828;4.718;2023-07-22T06:03:20;9.57;;;7.70;;
18239;SDS011;9244;50.828;4.718;2023-07-22T06:05:46;11.88;;;8.65;;
18239;SDS011;9244;50.828;4.718;2023-07-22T06:08:12;9.68;;;7.35;;
18239;SDS011;9244;50.828;4.718;2023-07-22T06:10:39;10.23;;;7.63;;
18239;SDS011;9244;50.828;4.718;2023-07-22T06:13:05;11.25;;;7.63;;
18239;SDS011;9244;50.828;4.718;2023-07-22T06:15:31;10.52;;;7.40;;
18239;SDS011;9244;50.828;4.718;2023-07-22T06:17:58;12.55;;;8.10;;
18239;SDS011;9244;50.828;4.718;2023-07-22T06:20:24;13.15;;;8.50;;
18239;SDS011;9244;50.828;4.718;2023-07-22T06:22:50;9.98;;;7.55;;
18239;SDS011;9244;50.828;4.718;2023-07-22T06:25:15;12.57;;;8.30;;
18239;SDS011;9244;50.828;4.718;2023-07-22T06:27:41;10.93;;;7.70;;
18239;SDS011;9244;50.828;4.718;2023-07-22T06:30:07;9.95;;;8.00;;
18239;SDS011;9244;50.828;4.718;2023-07-22T06:32:33;11.45;;;7.25;;
18239;SDS011;9244;50.828;4.718;2023-07-22T06:35:01;12.93;;;8.30;;
18239;SDS011;9244;50.828;4.718;2023-07-22T06:37:28;11.48;;;8.00;;
18239;SDS011;9244;50.828;4.718;2023-07-22T06:39:53;13.25;;;6.95;;
18239;SDS011;9244;50.828;4.718;2023-07-22T06:42:19;9.20;;;8.10;;
18239;SDS011;9244;50.828;4.718;2023-07-22T06:44:45;11.98;;;7.68;;
18239;SDS011;9244;50.828;4.718;2023-07-22T06:47:10;8.45;;;7.63;;
18239;SDS011;9244;50.828;4.718;2023-07-22T06:49:36;11.90;;;7.95;;
18239;SDS011;9244;50.828;4.718;2023-07-22T06:52:02;11.90;;;7.80;;
18239;SDS011;9244;50.828;4.718;2023-07-22T06:54:27;10.27;;;7.22;;
18239;SDS011;9244;50.828;4.718;2023-07-22T06:56:53;8.27;;;5.47;;
18239;SDS011;9244;50.828;4.718;2023-07-22T06:59:19;7.85;;;6.60;;
18239;SDS011;9244;50.828;4.718;2023-07-22T07:01:45;10.95;;;6.90;;
18239;SDS011;9244;50.828;4.718;2023-07-22T07:04:10;11.88;;;7.30;;
18239;SDS011;9244;50.828;4.718;2023-07-22T07:06:36;9.68;;;6.93;;
18239;SDS011;9244;50.828;4.718;2023-07-22T07:09:03;8.85;;;6.90;;
18239;SDS011;9244;50.828;4.718;2023-07-22T07:11:30;9.77;;;6.90;;
18239;SDS011;9244;50.828;4.718;2023-07-22T07:13:56;10.68;;;6.82;;
18239;SDS011;9244;50.828;4.718;2023-07-22T07:16:23;9.45;;;6.53;;
18239;SDS011;9244;50.828;4.718;2023-07-22T07:18:54;12.05;;;7.10;;
18239;SDS011;9244;50.828;4.718;2023-07-22T07:21:21;10.25;;;6.72;;
18239;SDS011;9244;50.828;4.718;2023-07-22T07:23:47;12.80;;;6.82;;
18239;SDS011;9244;50.828;4.718;2023-07-22T07:26:14;7.40;;;5.60;;
18239;SDS011;9244;50.828;4.718;2023-07-22T07:28:40;11.15;;;6.70;;
18239;SDS011;9244;50.828;4.718;2023-07-22T07:31:06;10.07;;;6.25;;
18239;SDS011;9244;50.828;4.718;2023-07-22T07:33:32;9.75;;;5.70;;
18239;SDS011;9244;50.828;4.718;2023-07-22T07:35:58;7.55;;;6.03;;
18239;SDS011;9244;50.828;4.718;2023-07-22T07:38:24;10.88;;;6.18;;
18239;SDS011;9244;50.828;4.718;2023-07-22T07:40:56;8.43;;;5.32;;
18239;SDS011;9244;50.828;4.718;2023-07-22T07:43:23;6.00;;;4.30;;
18239;SDS011;9244;50.828;4.718;2023-07-22T07:45:49;8.60;;;5.50;;
18239;SDS011;9244;50.828;4.718;2023-07-22T07:48:15;6.93;;;4.78;;
18239;SDS011;9244;50.828;4.718;2023-07-22T07:50:41;8.18;;;5.22;;
18239;SDS011;9244;50.828;4.718;2023-07-22T07:53:08;7.97;;;4.47;;
18239;SDS011;9244;50.828;4.718;2023-07-22T07:55:33;7.43;;;4.38;;
18239;SDS011;9244;50.828;4.718;2023-07-22T07:57:59;6.85;;;4.28;;
18239;SDS011;9244;50.828;4.718;2023-07-22T08:00:24;6.00;;;4.00;;
18239;SDS011;9244;50.828;4.718;2023-07-22T08:02:50;9.75;;;4.00;;
18239;SDS011;9244;50.828;4.718;2023-07-22T08:05:16;7.03;;;2.95;;
18239;SDS011;9244;50.828;4.718;2023-07-22T08:07:41;7.47;;;4.55;;
18239;SDS011;9244;50.828;4.718;2023-07-22T08:10:07;7.45;;;4.30;;
18239;SDS011;9244;50.828;4.718;2023-07-22T08:12:34;7.78;;;4.05;;
18239;SDS011;9244;50.828;4.718;2023-07-22T08:15:00;5.32;;;3.97;;
18239;SDS011;9244;50.828;4.718;2023-07-22T08:17:26;6.82;;;3.80;;
18239;SDS011;9244;50.828;4.718;2023-07-22T08:19:52;6.63;;;3.95;;
18239;SDS011;9244;50.828;4.718;2023-07-22T08:22:17;5.75;;;3.38;;
18239;SDS011;9244;50.828;4.718;2023-07-22T08:24:43;7.68;;;4.03;;
18239;SDS011;9244;50.828;4.718;2023-07-22T08:27:09;3.85;;;2.47;;
18239;SDS011;9244;50.828;4.718;2023-07-22T08:29:35;10.05;;;3.88;;
18239;SDS011;9244;50.828;4.718;2023-07-22T08:32:01;7.22;;;3.55;;
18239;SDS011;9244;50.828;4.718;2023-07-22T08:34:27;4.38;;;2.97;;
18239;SDS011;9244;50.828;4.718;2023-07-22T08:36:52;5.57;;;3.42;;
18239;SDS011;9244;50.828;4.718;2023-07-22T08:39:18;7.55;;;3.55;;
18239;SDS011;9244;50.828;4.718;2023-07-22T08:41:45;5.55;;;3.22;;
18239;SDS011;9244;50.828;4.718;2023-07-22T08:44:13;7.32;;;3.28;;
18239;SDS011;9244;50.828;4.718;2023-07-22T08:46:41;4.32;;;3.00;;
18239;SDS011;9244;50.828;4.718;2023-07-22T08:49:07;5.40;;;3.08;;
18239;SDS011;9244;50.828;4.718;2023-07-22T08:51:34;3.75;;;3.10;;
18239;SDS011;9244;50.828;4.718;2023-07-22T08:54:02;5.97;;;3.10;;
18239;SDS011;9244;50.828;4.718;2023-07-22T08:56:28;5.53;;;3.08;;
18239;SDS011;9244;50.828;4.718;2023-07-22T08:58:54;2.47;;;2.25;;
18239;SDS011;9244;50.828;4.718;2023-07-22T09:01:20;6.88;;;2.80;;
18239;SDS011;9244;50.828;4.718;2023-07-22T09:03:48;5.07;;;2.78;;
18239;SDS011;9244;50.828;4.718;2023-07-22T09:06:17;5.43;;;2.88;;
18239;SDS011;9244;50.828;4.718;2023-07-22T09:08:44;4.38;;;2.25;;
18239;SDS011;9244;50.828;4.718;2023-07-22T09:11:10;5.07;;;3.13;;
18239;SDS011;9244;50.828;4.718;2023-07-22T09:13:36;4.80;;;3.10;;
18239;SDS011;9244;50.828;4.718;2023-07-22T09:16:05;4.22;;;3.08;;
18239;SDS011;9244;50.828;4.718;2023-07-22T09:18:34;6.47;;;2.97;;
18239;SDS011;9244;50.828;4.718;2023-07-22T09:21:00;3.58;;;2.63;;
18239;SDS011;9244;50.828;4.718;2023-07-22T09:23:35;4.05;;;2.33;;
18239;SDS011;9244;50.828;4.718;2023-07-22T09:26:16;3.33;;;2.65;;
18239;SDS011;9244;50.828;4.718;2023-07-22T09:28:53;6.03;;;3.30;;
18239;SDS011;9244;50.828;4.718;2023-07-22T09:31:20;4.25;;;2.67;;
18239;SDS011;9244;50.828;4.718;2023-07-22T09:33:50;3.63;;;2.60;;
18239;SDS011;9244;50.828;4.718;2023-07-22T09:36:19;3.58;;;2.30;;
18239;SDS011;9244;50.828;4.718;2023-07-22T09:38:45;3.85;;;2.22;;
18239;SDS011;9244;50.828;4.718;2023-07-22T09:41:10;3.92;;;2.28;;
18239;SDS011;9244;50.828;4.718;2023-07-22T09:43:37;3.50;;;2.28;;
18239;SDS011;9244;50.828;4.718;2023-07-22T09:46:10;3.45;;;2.05;;
18239;SDS011;9244;50.828;4.718;2023-07-22T09:48:42;3.22;;;2.45;;
18239;SDS011;9244;50.828;4.718;2023-07-22T09:51:16;2.72;;;2.08;;
18239;SDS011;9244;50.828;4.718;2023-07-22T09:53:51;3.13;;;2.10;;
18239;SDS011;9244;50.828;4.718;2023-07-22T09:56:25;2.42;;;1.35;;
18239;SDS011;9244;50.828;4.718;2023-07-22T09:58:51;4.22;;;1.80;;
18239;SDS011;9244;50.828;4.718;2023-07-22T10:01:18;3.05;;;1.77;;
18239;SDS011;9244;50.828;4.718;2023-07-22T10:03:46;3.35;;;1.88;;
18239;SDS011;9244;50.828;4.718;2023-07-22T10:06:19;2.40;;;1.73;;
18239;SDS011;9244;50.828;4.718;2023-07-22T10:08:48;4.22;;;2.35;;
18239;SDS011;9244;50.828;4.718;2023-07-22T10:11:14;1.95;;;1.70;;
18239;SDS011;9244;50.828;4.718;2023-07-22T10:13:41;2.85;;;1.88;;
18239;SDS011;9244;50.828;4.718;2023-07-22T10:16:06;2.33;;;1.70;;
18239;SDS011;9244;50.828;4.718;2023-07-22T10:18:33;3.03;;;1.80;;
18239;SDS011;9244;50.828;4.718;2023-07-22T10:21:02;2.22;;;1.60;;
18239;SDS011;9244;50.828;4.718;2023-07-22T10:23:28;3.97;;;1.70;;
18239;SDS011;9244;50.828;4.718;2023-07-22T10:25:56;2.95;;;2.40;;
18239;SDS011;9244;50.828;4.718;2023-07-22T10:28:23;2.55;;;1.77;;
18239;SDS011;9244;50.828;4.718;2023-07-22T10:30:49;2.17;;;1.55;;
18239;SDS011;9244;50.828;4.718;2023-07-22T10:33:16;6.10;;;2.30;;
18239;SDS011;9244;50.828;4.718;2023-07-22T10:35:43;2.33;;;1.58;;
18239;SDS011;9244;50.828;4.718;2023-07-22T10:38:25;2.58;;;1.65;;
18239;SDS011;9244;50.828;4.718;2023-07-22T10:40:52;2.80;;;1.60;;
18239;SDS011;9244;50.828;4.718;2023-07-22T10:43:30;2.63;;;1.73;;
18239;SDS011;9244;50.828;4.718;2023-07-22T10:46:00;2.20;;;1.67;;
18239;SDS011;9244;50.828;4.718;2023-07-22T10:48:40;2.10;;;1.70;;
18239;SDS011;9244;50.828;4.718;2023-07-22T10:51:09;3.70;;;1.90;;
18239;SDS011;9244;50.828;4.718;2023-07-22T10:53:42;2.67;;;1.58;;
18239;SDS011;9244;50.828;4.718;2023-07-22T11:09:33;1.40;;;1.30;;
18239;SDS011;9244;50.828;4.718;2023-07-22T11:12:10;1.52;;;1.30;;
18239;SDS011;9244;50.828;4.718;2023-07-22T11:14:46;2.13;;;1.40;;
18239;SDS011;9244;50.828;4.718;2023-07-22T11:17:13;1.58;;;1.35;;
18239;SDS011;9244;50.828;4.718;2023-07-22T11:19:39;1.30;;;1.10;;
18239;SDS011;9244;50.828;4.718;2023-07-22T11:22:05;1.40;;;1.30;;
18239;SDS011;9244;50.828;4.718;2023-07-22T11:24:34;1.75;;;1.33;;
18239;SDS011;9244;50.828;4.718;2023-07-22T11:27:04;2.80;;;1.50;;
18239;SDS011;9244;50.828;4.718;2023-07-22T11:29:31;1.55;;;1.45;;
18239;SDS011;9244;50.828;4.718;2023-07-22T11:31:57;1.40;;;1.20;;
18239;SDS011;9244;50.828;4.718;2023-07-22T11:34:24;1.35;;;1.25;;
18239;SDS011;9244;50.828;4.718;2023-07-22T11:36:51;1.45;;;1.30;;
18239;SDS011;9244;50.828;4.718;2023-07-22T11:39:18;2.85;;;1.77;;
18239;SDS011;9244;50.828;4.718;2023-07-22T11:41:45;2.22;;;1.60;;
18239;SDS011;9244;50.828;4.718;2023-07-22T11:44:13;2.75;;;1.80;;
18239;SDS011;9244;50.828;4.718;2023-07-22T11:49:21;3.80;;;1.90;;
18239;SDS011;9244;50.828;4.718;2023-07-22T11:51:51;2.55;;;1.60;;
18239;SDS011;9244;50.828;4.718;2023-07-22T11:54:21;2.33;;;1.73;;
18239;SDS011;9244;50.828;4.718;2023-07-22T11:56:47;2.10;;;1.75;;
18239;SDS011;9244;50.828;4.718;2023-07-22T11:59:13;3.53;;;1.60;;
18239;SDS011;9244;50.828;4.718;2023-07-22T12:01:38;3.00;;;1.77;;
18239;SDS011;9244;50.828;4.718;2023-07-22T12:04:09;2.13;;;1.48;;
18239;SDS011;9244;50.828;4.718;2023-07-22T12:06:36;4.15;;;2.00;;
18239;SDS011;9244;50.828;4.718;2023-07-22T12:09:02;3.53;;;1.67;;
18239;SDS011;9244;50.828;4.718;2023-07-22T12:11:28;2.60;;;2.10;;
18239;SDS011;9244;50.828;4.718;2023-07-22T12:14:13;3.10;;;2.15;;
18239;SDS011;9244;50.828;4.718;2023-07-22T12:16:40;3.38;;;2.20;;
18239;SDS011;9244;50.828;4.718;2023-07-22T12:19:07;2.65;;;2.20;;
18239;SDS011;9244;50.828;4.718;2023-07-22T12:21:34;2.67;;;2.10;;
18239;SDS011;9244;50.828;4.718;2023-07-22T12:24:00;2.08;;;1.88;;
18239;SDS011;9244;50.828;4.718;2023-07-22T12:26:26;2.53;;;1.70;;
18239;SDS011;9244;50.828;4.718;2023-07-22T12:28:53;4.28;;;2.10;;
18239;SDS011;9244;50.828;4.718;2023-07-22T12:31:19;2.58;;;2.00;;
18239;SDS011;9244;50.828;4.718;2023-07-22T12:33:44;1.50;;;1.40;;
18239;SDS011;9244;50.828;4.718;2023-07-22T12:36:10;3.35;;;2.10;;
18239;SDS011;9244;50.828;4.718;2023-07-22T12:38:36;2.33;;;2.13;;
18239;SDS011;9244;50.828;4.718;2023-07-22T12:41:02;4.40;;;2.22;;
18239;SDS011;9244;50.828;4.718;2023-07-22T12:43:28;2.45;;;2.10;;
18239;SDS011;9244;50.828;4.718;2023-07-22T12:45:54;2.47;;;1.40;;
18239;SDS011;9244;50.828;4.718;2023-07-22T12:48:20;3.45;;;1.75;;
18239;SDS011;9244;50.828;4.718;2023-07-22T12:50:45;1.70;;;1.55;;
18239;SDS011;9244;50.828;4.718;2023-07-22T12:53:14;1.88;;;1.77;;
18239;SDS011;9244;50.828;4.718;2023-07-22T12:55:39;2.95;;;1.60;;
18239;SDS011;9244;50.828;4.718;2023-07-22T12:58:05;2.15;;;1.83;;
18239;SDS011;9244;50.828;4.718;2023-07-22T13:00:30;2.95;;;2.20;;
18239;SDS011;9244;50.828;4.718;2023-07-22T13:02:56;4.22;;;2.28;;
18239;SDS011;9244;50.828;4.718;2023-07-22T13:05:22;1.60;;;1.30;;
18239;SDS011;9244;50.828;4.718;2023-07-22T13:07:48;3.28;;;1.70;;
18239;SDS011;9244;50.828;4.718;2023-07-22T13:10:14;3.88;;;1.80;;
18239;SDS011;9244;50.828;4.718;2023-07-22T13:12:43;2.25;;;1.42;;
18239;SDS011;9244;50.828;4.718;2023-07-22T13:15:08;1.88;;;1.70;;
18239;SDS011;9244;50.828;4.718;2023-07-22T13:17:35;2.47;;;1.58;;
18239;SDS011;9244;50.828;4.718;2023-07-22T13:20:01;1.67;;;1.58;;
18239;SDS011;9244;50.828;4.718;2023-07-22T13:22:30;2.65;;;1.70;;
18239;SDS011;9244;50.828;4.718;2023-07-22T13:24:55;1.40;;;1.30;;
18239;SDS011;9244;50.828;4.718;2023-07-22T13:27:21;2.72;;;1.40;;
18239;SDS011;9244;50.828;4.718;2023-07-22T13:29:47;2.00;;;1.30;;
18239;SDS011;9244;50.828;4.718;2023-07-22T13:32:12;1.58;;;1.17;;
18239;SDS011;9244;50.828;4.718;2023-07-22T13:34:38;1.45;;;1.25;;
18239;SDS011;9244;50.828;4.718;2023-07-22T13:37:03;1.63;;;1.40;;
18239;SDS011;9244;50.828;4.718;2023-07-22T13:39:29;2.97;;;1.30;;
18239;SDS011;9244;50.828;4.718;2023-07-22T13:41:55;1.45;;;1.20;;
18239;SDS011;9244;50.828;4.718;2023-07-22T13:44:20;0.98;;;0.90;;
18239;SDS011;9244;50.828;4.718;2023-07-22T13:46:46;1.25;;;1.10;;
18239;SDS011;9244;50.828;4.718;2023-07-22T13:49:12;1.33;;;1.10;;
18239;SDS011;9244;50.828;4.718;2023-07-22T13:51:40;1.50;;;1.20;;
18239;SDS011;9244;50.828;4.718;2023-07-22T13:54:06;2.50;;;1.23;;
18239;SDS011;9244;50.828;4.718;2023-07-22T13:56:31;3.05;;;1.27;;
18239;SDS011;9244;50.828;4.718;2023-07-22T13:58:57;2.47;;;1.33;;
18239;SDS011;9244;50.828;4.718;2023-07-22T14:01:25;1.65;;;1.17;;
18239;SDS011;9244;50.828;4.718;2023-07-22T14:03:51;1.80;;;1.50;;
18239;SDS011;9244;50.828;4.718;2023-07-22T14:06:17;1.70;;;1.27;;
18239;SDS011;9244;50.828;4.718;2023-07-22T14:08:43;1.90;;;1.30;;
18239;SDS011;9244;50.828;4.718;2023-07-22T14:11:08;9.80;;;1.60;;
18239;SDS011;9244;50.828;4.718;2023-07-22T14:13:34;3.80;;;1.25;;
18239;SDS011;9244;50.828;4.718;2023-07-22T14:16:00;2.03;;;1.30;;
18239;SDS011;9244;50.828;4.718;2023-07-22T14:18:26;3.42;;;1.25;;
18239;SDS011;9244;50.828;4.718;2023-07-22T14:20:52;2.78;;;1.60;;
18239;SDS011;9244;50.828;4.718;2023-07-22T14:23:17;2.13;;;1.20;;
18239;SDS011;9244;50.828;4.718;2023-07-22T14:25:43;3.30;;;1.73;;
18239;SDS011;9244;50.828;4.718;2023-07-22T14:28:09;1.70;;;1.30;;
18239;SDS011;9244;50.828;4.718;2023-07-22T14:30:34;2.65;;;1.63;;
18239;SDS011;9244;50.828;4.718;2023-07-22T14:33:00;2.13;;;1.80;;
18239;SDS011;9244;50.828;4.718;2023-07-22T14:35:25;1.77;;;1.58;;
18239;SDS011;9244;50.828;4.718;2023-07-22T14:37:51;3.47;;;1.70;;
18239;SDS011;9244;50.828;4.718;2023-07-22T14:40:17;2.45;;;1.33;;
18239;SDS011;9244;50.828;4.718;2023-07-22T14:42:42;3.20;;;1.60;;
18239;SDS011;9244;50.828;4.718;2023-07-22T14:45:08;2.03;;;1.40;;
18239;SDS011;9244;50.828;4.718;2023-07-22T14:47:34;4.57;;;1.77;;
18239;SDS011;9244;50.828;4.718;2023-07-22T14:50:00;3.08;;;1.60;;
18239;SDS011;9244;50.828;4.718;2023-07-22T14:52:26;5.15;;;2.00;;
18239;SDS011;9244;50.828;4.718;2023-07-22T14:54:51;2.47;;;1.50;;
18239;SDS011;9244;50.828;4.718;2023-07-22T14:57:17;1.77;;;1.52;;
18239;SDS011;9244;50.828;4.718;2023-07-22T14:59:42;1.70;;;1.60;;
18239;SDS011;9244;50.828;4.718;2023-07-22T15:02:08;3.22;;;1.70;;
18239;SDS011;9244;50.828;4.718;2023-07-22T15:04:35;4.63;;;1.40;;
18239;SDS011;9244;50.828;4.718;2023-07-22T15:07:01;3.55;;;1.83;;